TAF KMKL
KMKL 270524Z 2706/2806 18003KT P6SM SKC FM271500 22012G17KT P6SM FEW250 FM272300 21006KT P6SM SCT250=
METAR KMKL
WC KMKL
WS KMKL
WV KMKL